createdAt,value
2018-01-08T00:03:54.620Z,4.50
2018-01-08T00:08:57.218Z,3.57
2018-01-08T00:14:00.321Z,4.00
2018-01-08T00:19:03.336Z,4.07
2018-01-08T00:24:06.025Z,3.93
2018-01-08T00:29:09.338Z,3.53
2018-01-08T00:34:12.687Z,3.70
2018-01-08T00:39:15.311Z,3.60
2018-01-08T00:44:17.933Z,3.87
2018-01-08T00:49:20.506Z,3.27
2018-01-08T00:54:23.078Z,4.10
2018-01-08T00:59:25.734Z,3.60
2018-01-08T01:04:29.418Z,3.97
2018-01-08T01:09:32.033Z,3.50
2018-01-08T01:14:34.644Z,3.33
2018-01-08T01:19:37.245Z,3.43
2018-01-08T01:24:39.843Z,3.77
2018-01-08T01:29:42.406Z,3.47
2018-01-08T01:34:45.042Z,4.20
2018-01-08T01:39:47.677Z,4.40
2018-01-08T01:44:50.322Z,4.07
2018-01-08T01:49:53.694Z,3.73
2018-01-08T01:54:56.283Z,3.70
2018-01-08T01:59:58.867Z,4.30
2018-01-08T02:05:01.497Z,3.70
2018-01-08T02:10:05.043Z,3.60
2018-01-08T02:15:07.610Z,3.40
2018-01-08T02:20:10.204Z,4.37
2018-01-08T02:25:12.803Z,3.60
2018-01-08T02:30:15.571Z,3.53
2018-01-08T02:35:18.135Z,3.40
2018-01-08T02:40:20.713Z,3.23
2018-01-08T02:45:23.821Z,3.23
2018-01-08T02:50:27.306Z,2.70
2018-01-08T02:55:29.873Z,3.00
2018-01-08T03:00:32.508Z,3.07
2018-01-08T03:05:35.089Z,3.23
2018-01-08T03:10:39.030Z,2.90
2018-01-08T03:15:41.610Z,2.90
2018-01-08T03:20:44.217Z,3.00
2018-01-08T03:25:46.796Z,3.00
2018-01-08T03:30:49.714Z,3.07
2018-01-08T03:35:52.314Z,2.90
2018-01-08T03:40:54.880Z,2.60
2018-01-08T03:45:57.484Z,2.90
2018-01-08T03:51:00.045Z,2.97
2018-01-08T03:56:02.639Z,2.93
2018-01-08T04:01:05.259Z,2.50
2018-01-08T04:06:07.902Z,3.07
2018-01-08T04:11:10.496Z,3.10
2018-01-08T04:16:13.873Z,2.93
2018-01-08T04:21:16.973Z,2.47
2018-01-08T04:26:20.205Z,2.53
2018-01-08T04:31:24.327Z,2.80
2018-01-08T04:36:26.929Z,2.97
2018-01-08T04:41:29.607Z,2.60
2018-01-08T04:46:32.203Z,3.07
2018-01-08T04:51:34.817Z,3.17
2018-01-08T04:56:37.512Z,2.67
2018-01-08T05:01:40.115Z,2.57
2018-01-08T05:06:42.763Z,2.40
2018-01-08T05:11:45.349Z,3.27
2018-01-08T05:16:47.921Z,2.77
2018-01-08T05:21:50.558Z,2.60
2018-01-08T05:26:53.498Z,3.00
2018-01-08T05:31:56.699Z,3.30
2018-01-08T05:37:00.110Z,2.57
2018-01-08T05:42:02.679Z,2.20
2018-01-08T05:47:05.831Z,2.13
2018-01-08T05:52:09.189Z,2.97
2018-01-08T05:57:11.847Z,2.00
2018-01-08T06:02:15.239Z,2.00
2018-01-08T06:07:18.446Z,2.60
2018-01-08T06:12:21.067Z,2.30
2018-01-08T06:17:23.691Z,2.20
2018-01-08T06:22:26.274Z,2.07
2018-01-08T06:27:28.868Z,2.63
2018-01-08T06:32:31.589Z,2.60
2018-01-08T06:37:34.294Z,2.40
2018-01-08T06:42:36.872Z,2.13
2018-01-08T06:47:39.552Z,2.23
2018-01-08T06:52:42.296Z,1.70
2018-01-08T06:57:44.940Z,2.10
2018-01-08T07:02:48.464Z,2.00
2018-01-08T07:07:51.347Z,1.90
2018-01-08T07:12:53.950Z,2.57
2018-01-08T07:17:56.659Z,2.43
2018-01-08T07:22:59.270Z,2.07
2018-01-08T07:28:01.898Z,2.10
2018-01-08T07:33:04.551Z,2.00
2018-01-08T07:38:07.137Z,1.80
2018-01-08T07:43:10.564Z,2.00
2018-01-08T07:48:13.225Z,2.07
2018-01-08T07:53:15.830Z,1.70
2018-01-08T07:58:18.437Z,1.70
2018-01-08T08:03:21.122Z,1.93
2018-01-08T08:08:23.767Z,1.77
2018-01-08T08:13:27.229Z,2.23
2018-01-08T08:18:29.985Z,2.23
2018-01-08T08:23:32.606Z,2.40
2018-01-08T08:28:35.481Z,2.30
2018-01-08T08:33:39.471Z,2.63
2018-01-08T08:38:42.830Z,3.13
2018-01-08T08:43:45.439Z,2.47
2018-01-08T08:48:48.058Z,2.53
2018-01-08T08:53:50.637Z,2.73
2018-01-08T08:58:53.263Z,2.60
2018-01-08T09:03:55.921Z,2.63
2018-01-08T09:08:58.490Z,2.97
2018-01-08T09:14:01.111Z,2.70
2018-01-08T09:19:03.888Z,3.17
2018-01-08T09:24:06.617Z,3.20
2018-01-08T09:29:09.656Z,3.07
2018-01-08T09:34:12.276Z,2.90
2018-01-08T09:39:14.897Z,2.77
2018-01-08T09:44:17.488Z,2.80
2018-01-08T09:49:20.082Z,2.90
2018-01-08T09:54:22.700Z,3.03
2018-01-08T09:59:25.371Z,2.90
2018-01-08T10:04:39.765Z,3.47
2018-01-08T10:09:54.168Z,3.10
2018-01-08T10:15:09.452Z,3.10
2018-01-08T10:20:12.062Z,3.50
2018-01-08T10:25:14.655Z,3.73
2018-01-08T10:30:17.299Z,3.17
2018-01-08T10:35:19.991Z,3.53
2018-01-08T10:40:22.674Z,3.03
2018-01-08T10:45:31.027Z,3.97
2018-01-08T10:50:39.563Z,3.67
2018-01-08T10:55:42.428Z,3.57
2018-01-08T11:00:45.204Z,3.20
2018-01-08T11:05:48.585Z,3.20
2018-01-08T11:10:51.270Z,3.20
2018-01-08T11:15:53.858Z,3.67
2018-01-08T11:20:56.533Z,3.20
2018-01-08T11:25:59.115Z,3.20
2018-01-08T11:31:02.228Z,3.27
2018-01-08T11:36:05.366Z,3.37
2018-01-08T11:41:08.015Z,3.53
2018-01-08T11:46:10.608Z,3.37
2018-01-08T11:51:14.015Z,3.60
2018-01-08T11:56:17.386Z,3.70
2018-01-08T12:01:20.049Z,3.10
2018-01-08T12:06:22.986Z,3.17
2018-01-08T12:11:26.606Z,3.00
2018-01-08T12:16:29.195Z,2.90
2018-01-08T12:21:31.763Z,3.60
2018-01-08T12:26:34.326Z,3.10
2018-01-08T12:31:37.674Z,3.70
2018-01-08T12:36:41.011Z,2.67
2018-01-08T12:41:44.396Z,2.90
2018-01-08T12:46:46.981Z,2.63
2018-01-08T12:51:50.110Z,3.07
2018-01-08T12:56:52.732Z,2.43
2018-01-08T13:01:55.341Z,2.90
2018-01-08T13:06:57.915Z,2.70
2018-01-08T13:12:01.557Z,2.83
2018-01-08T13:17:04.227Z,2.97
2018-01-08T13:22:06.853Z,2.60
2018-01-08T13:27:09.487Z,2.60
2018-01-08T13:32:12.169Z,2.07
2018-01-08T13:37:14.872Z,2.20
2018-01-08T13:42:18.232Z,2.50
2018-01-08T13:47:20.808Z,2.20
2018-01-08T13:52:23.406Z,2.50
2018-01-08T13:57:26.041Z,2.30
2018-01-08T14:02:29.512Z,2.40
2018-01-08T14:07:32.087Z,2.00
2018-01-08T14:12:34.672Z,2.37
2018-01-08T14:17:38.034Z,2.80
2018-01-08T14:22:40.583Z,2.77
2018-01-08T14:27:44.002Z,3.90
2018-01-08T14:32:46.561Z,3.13
2018-01-08T14:37:49.759Z,3.07
2018-01-08T14:42:52.358Z,3.87
2018-01-08T14:47:55.001Z,3.57
2018-01-08T14:52:57.857Z,2.53
2018-01-08T14:58:00.469Z,3.13
2018-01-08T15:03:03.864Z,2.67
2018-01-08T15:08:07.001Z,2.50
2018-01-08T15:13:11.227Z,2.30
2018-01-08T15:18:13.805Z,2.50
2018-01-08T15:23:16.391Z,2.30
2018-01-08T15:28:19.015Z,2.07
2018-01-08T15:33:22.351Z,2.93
2018-01-08T15:38:25.000Z,1.83
2018-01-08T15:43:28.151Z,2.23
2018-01-08T15:48:30.755Z,2.27
2018-01-08T15:53:33.445Z,1.90
2018-01-08T15:58:36.800Z,2.30
2018-01-08T16:03:39.391Z,1.70
2018-01-08T16:08:42.136Z,2.30
2018-01-08T16:13:44.708Z,2.07
2018-01-08T16:18:47.310Z,1.70
2018-01-08T16:23:50.175Z,1.97
2018-01-08T16:28:52.872Z,2.00
2018-01-08T16:33:56.267Z,1.90
2018-01-08T16:38:58.861Z,1.60
2018-01-08T16:44:01.436Z,1.40
2018-01-08T16:49:04.673Z,1.80
2018-01-08T16:54:07.290Z,1.50
2018-01-08T16:59:09.916Z,1.93
2018-01-08T17:04:12.609Z,1.93
2018-01-08T17:09:15.246Z,2.07
2018-01-08T17:14:17.864Z,2.00
2018-01-08T17:19:20.467Z,2.17
2018-01-08T17:24:23.795Z,1.87
2018-01-08T17:29:27.915Z,1.87
2018-01-08T17:34:30.507Z,1.73
2018-01-08T17:39:33.237Z,1.77
2018-01-08T17:44:36.646Z,1.60
2018-01-08T17:49:39.360Z,1.70
2018-01-08T17:54:42.017Z,2.23
2018-01-08T17:59:44.649Z,2.00
2018-01-08T18:04:47.323Z,2.27
2018-01-08T18:09:49.996Z,2.27
2018-01-08T18:14:52.949Z,2.50
2018-01-08T18:19:55.551Z,2.47
2018-01-08T18:24:58.764Z,2.30
2018-01-08T18:30:01.377Z,2.50
2018-01-08T18:35:03.992Z,2.50
2018-01-08T18:40:06.626Z,2.50
2018-01-08T18:45:09.206Z,2.50
2018-01-08T18:50:11.836Z,2.50
2018-01-08T18:55:17.555Z,2.67
2018-01-08T19:00:20.174Z,2.60
2018-01-08T19:05:22.794Z,2.97
2018-01-08T19:10:25.413Z,2.87
2018-01-08T19:15:28.028Z,2.93
2018-01-08T19:20:30.702Z,2.57
2018-01-08T19:25:33.449Z,2.20
2018-01-08T19:30:36.047Z,2.37
2018-01-08T19:35:38.630Z,2.80
2018-01-08T19:40:41.252Z,2.80
2018-01-08T19:45:43.811Z,2.20
2018-01-08T19:50:46.468Z,2.57
2018-01-08T19:55:49.128Z,2.50
2018-01-08T20:00:51.726Z,2.90
2018-01-08T20:05:54.984Z,2.77
2018-01-08T20:10:59.176Z,2.70
2018-01-08T20:16:01.770Z,2.83
2018-01-08T20:21:05.408Z,3.40
2018-01-08T20:26:08.003Z,2.57
2018-01-08T20:31:10.603Z,2.83
2018-01-08T20:36:13.260Z,2.80
2018-01-08T20:41:15.888Z,2.70
2018-01-08T20:46:18.545Z,3.10
2018-01-08T20:51:21.192Z,3.20
2018-01-08T20:56:23.824Z,3.87
2018-01-08T21:01:26.544Z,4.23
2018-01-08T21:06:29.193Z,4.73
2018-01-08T21:11:31.766Z,5.20
2018-01-08T21:16:35.147Z,5.07
2018-01-08T21:21:39.229Z,5.00
2018-01-08T21:26:42.112Z,6.10
2018-01-08T21:31:45.446Z,4.97
2018-01-08T21:36:50.790Z,5.77
2018-01-08T21:41:55.549Z,4.90
2018-01-08T21:46:59.156Z,5.13
2018-01-08T21:52:02.183Z,4.87
2018-01-08T22:02:20.214Z,4.27
2018-01-08T22:07:28.555Z,4.23
2018-01-08T22:12:32.988Z,4.30
2018-01-08T22:17:36.342Z,5.03
2018-01-08T22:22:38.961Z,4.43
2018-01-08T22:27:41.587Z,4.30
2018-01-08T22:32:44.200Z,4.10
2018-01-08T22:37:46.998Z,3.50
2018-01-08T22:42:50.397Z,4.20
2018-01-08T22:47:53.027Z,3.47
2018-01-08T22:52:55.757Z,3.50
2018-01-08T22:57:58.416Z,3.40
2018-01-08T23:03:01.064Z,3.20
2018-01-08T23:08:03.675Z,3.20
2018-01-08T23:13:06.303Z,3.27
2018-01-08T23:18:09.118Z,3.37
2018-01-08T23:23:11.711Z,3.33
2018-01-08T23:28:14.319Z,2.90
2018-01-08T23:33:16.892Z,3.60
2018-01-08T23:38:19.525Z,3.00
2018-01-08T23:43:22.522Z,2.70
2018-01-08T23:48:26.545Z,3.50
2018-01-08T23:53:29.124Z,3.30
2018-01-08T23:58:31.709Z,2.50
